Pagrindinis puslapis
METAR-TAF:

METAR-TAF

Oro uostai :

Monte Cimone, Italija

platuma: 44-12N, ilguma: 010-42E, Aukštis: 2165 m

Dabartinis oras

Ataskaita buvo paskelbta 44 minutes, ne 03:55 UTC
Vėjas 6 kt iš Pietvakarių
Temperatūra 14°C
Drėgmė 77%
Slėgis 1025 hPa

METAR: LIVC 110355Z AUTO 22006KT //// 14/10 Q1025

Laikas: 06:39 (04:39 UTC)


TAF: trūkstamas

Orai ataskaitas ir orų prognozės (METAR, TAF).

turimą stotys yra geltonos ir raudonos taškus žemėlapyje.

Perkelti pele per norėdami pamatyti stoties vardą.

Tada spustelėkite, norėdami matyti oro stebėjimo ir prognozės.

Norėdami pakeisti žemėlapį: spustelėkite ant žalios mygtukų su juodo kryžiaus žemyn,; žalią mygtuką su brūkšneliu, jei norite nutolinti; arba žalių rodyklių gretimoms žemėlapius.


METAR-TAF: